NCAR-RAP Real-Time Weather Data

Output produced by METARs form (08 May 2021  00:41 UTC)
found at http://weather.rap.ucar.edu/surface/
 
KCLE 072351Z 13007KT 10SM FEW085 SCT120 08/05 A2990 RMK AO2 WSHFT 2246 RAE30 SLP144 P0010 60010 T00780050 10128 20072 58003
KCLE 072306Z 26010KT 4SM RA BKN034 OVC041 08/05 A2993 RMK AO2 WSHFT 2246 P0005 T00780050
KCLE 072251Z 26017G27KT 6SM -RA FEW033 OVC041 09/04 A2993 RMK AO2 PK WND 26027/2248 RAB31 PRESRR SLP153 P0000 T00890039
KCLE 072151Z 02004KT 10SM BKN095 13/02 A2989 RMK AO2 SLP141 T01280017
KCLE 072051Z 04006KT 10SM SCT041 12/02 A2991 RMK AO2 SLP145 T01220022 58016
KCLE 071951Z 36004KT 10SM SCT034 12/02 A2992 RMK AO2 SLP152 T01170022
KCLE 071851Z 32007KT 10SM SCT034 SCT041 12/04 A2995 RMK AO2 SLP159 T01170039
KCLE 071751Z 01008KT 10SM BKN024 BKN031 10/04 A2995 RMK AO2 SLP162 T01000039 10106 20067 58002
KCLE 071737Z 35009KT 10SM BKN023 BKN030 10/04 A2996 RMK AO2 T01000039
KCLE 071700Z 34011KT 10SM SCT025 BKN033 10/04 A2996 RMK AO2 T01000044
KCLE 071651Z 35010KT 10SM BKN025 BKN033 10/04 A2996 RMK AO2 SLP164 T01000039
KCLE 071551Z 35007KT 10SM BKN022 BKN030 09/04 A2996 RMK AO2 SLP163 T00890039
KCLE 071451Z 36008KT 10SM BKN016 BKN023 OVC034 08/04 A2996 RMK AO2 SLP164 T00830044 51009
KCLE 071351Z 36008KT 10SM BKN015 BKN022 OVC027 07/04 A2995 RMK AO2 SLP163 T00720044
KCLE 071322Z 02010KT 10SM SCT009 BKN015 OVC026 07/04 A2994 RMK AO2 T00670044
KCLE 071315Z 01012KT 10SM BKN010 OVC014 07/04 A2994 RMK AO2 T00670044
KCLE 071251Z 02008KT 10SM BKN008 OVC015 07/05 A2994 RMK AO2 SLP157 T00670050
KCLE 071151Z 36006KT 10SM OVC014 07/04 A2993 RMK AO2 RAE08B31E40 SLP154 P0000 60009 70026 T00670044 10067 20061 53007 $
KCLE 071129Z 03006KT 9SM OVC013 07/04 A2992 RMK AO2 RAE08 P0000 T00670044 $
KCLE 071051Z 03007KT 10SM -RA SCT006 BKN016 OVC028 07/04 A2991 RMK AO2 SLP147 P0000 T00670044 $
KCLE 071008Z 04006KT 10SM -RA FEW008 BKN019 OVC060 07/04 A2990 RMK AO2 P0000 T00670044 $
KCLE 070955Z 04006KT 10SM -RA FEW006 FEW017 OVC060 06/04 A2990 RMK AO2 P0000 T00610044 $
KCLE 070951Z 05004KT 10SM -RA FEW017 OVC060 06/04 A2990 RMK AO2 SLP144 P0002 T00610044 $
KCLE 070936Z 05007KT 10SM -RA FEW006 SCT017 OVC065 06/04 A2990 RMK AO2 P0002 T00610044 $
KCLE 070913Z 04006KT 7SM -RA FEW006 BKN018 OVC038 06/04 A2991 RMK AO2 P0002 T00610044 $
KCLE 070851Z 02005KT 7SM -RA BKN007 OVC014 06/04 A2991 RMK AO2 SLP147 P0003 60007 T00610044 56010 $